Flight Track Log - Related Links

Times and Time Zones

All times are in EDT time to prevent confusion due to time zone crossing. See the BJS535 flight status page for this flight to view local times or setup timezone preferences in your user account.

Time Position Orientation Groundspeed Altitude Reporting Facility
EDT Latitude Longitude Course Direction KTS MPH feet Rate Location/Type
Sat 07:05:48 PM 42.1333 -87.9167 12° North 163 188 1,500  Level Chicago TRACON
Sat 07:06:32 PM 42.1764 -87.9047 12° North 207 238 3,100 1,358 Climbing Chicago Center
Sat 07:07:34 PM 42.2319 -87.8814 17° North 210 242 3,900 1,024 Climbing Chicago Center
Sat 07:08:35 PM 42.2208 -87.8008 101° East 227 261 5,200 2,927 Climbing Chicago Center
Sat 07:09:37 PM 42.1672 -87.8453 212° Southwest 263 303 9,900 3,951 Climbing Chicago Center
Sat 07:10:38 PM 42.0967 -87.8625 190° South 278 320 13,300 3,049 Climbing Chicago Center
Sat 07:11:39 PM 42.0114 -87.8517 175° South 315 362 16,100 2,927 Climbing Chicago Center
Sat 07:12:41 PM 41.9178 -87.8303 170° South 340 391 19,300 3,220 Climbing Chicago Center
Sat 07:13:42 PM 41.8003 -87.8058 171° South 354 407 22,700 2,732 Climbing Chicago Center
Sat 07:14:44 PM 41.6961 -87.7814 170° South 376 433 24,900 2,000 Climbing Chicago Center
Sat 07:15:45 PM 41.5847 -87.7586 171° South 399 459 26,800 1,820 Climbing Chicago Center
Sat 07:16:46 PM 41.4686 -87.7344 171° South 414 476 28,600 1,756 Climbing Chicago Center
Sat 07:17:48 PM 41.3472 -87.7253 177° South 438 504 30,400 1,171 Climbing Chicago Center
Sat 07:18:49 PM 41.2250 -87.7261 180° South 436 502 31,000 293 Climbing Chicago Center
Sat 07:19:51 PM 41.1050 -87.7128 175° South 433 498 31,000  Level Chicago Center
Sat 07:20:52 PM 40.9864 -87.6972 174° South 430 495 31,000  Level Chicago Center
Sat 07:21:53 PM 40.8681 -87.6794 174° South 429 494 31,000  Level Chicago Center
Sat 07:22:55 PM 40.7589 -87.6283 160° South 425 489 31,000  Level Chicago Center
Sat 07:23:56 PM 40.6347 -87.5481 154° Southeast 417 480 31,000 -98 Level Chicago Center
Sat 07:24:58 PM 40.5319 -87.4803 153° Southeast 416 479 30,800 -585 Descending Chicago Center
Sat 07:25:59 PM 40.4267 -87.4175 156° South 423 487 29,800 -976 Descending Chicago Center
Sat 07:27:01 PM 40.3097 -87.3967 172° South 430 495 28,800 -976 Descending Chicago Center
Sat 07:28:02 PM 40.1936 -87.3767 173° South 427 491 27,800 -950 Descending Chicago Center
Sat 07:28:42 PM 40.0997 -87.3572 171° South 425 489 27,200 -475 Descending Indianapolis Center
Sat 07:29:43 PM 39.9844 -87.3375 173° South 422 486 27,000 -246 Descending Indianapolis Center
Sat 07:30:44 PM 39.8722 -87.3178 172° South 413 475 26,700 -639 Descending Indianapolis Center
Sat 07:31:45 PM 39.7606 -87.2978 172° South 410 472 25,700 -976 Descending Indianapolis Center
Sat 07:32:47 PM 39.6483 -87.2778 172° South 410 472 24,700 -732 Descending Indianapolis Center
Sat 07:33:48 PM 39.5367 -87.2572 172° South 409 471 24,200 -344 Descending Indianapolis Center
Sat 07:34:49 PM 39.4294 -87.2242 167° South 399 459 24,000 -98 Descending Indianapolis Center
Sat 07:35:50 PM 39.3256 -87.1781 161° South 397 457 24,000  Level Indianapolis Center
Sat 07:36:51 PM 39.2192 -87.1339 162° South 401 461 24,000  Level Indianapolis Center
Sat 07:37:52 PM 39.1075 -87.0842 161° South 404 465 24,000  Level Indianapolis Center
Sat 07:38:53 PM 39.0003 -87.0389 162° South 404 465 24,000  Level Indianapolis Center
Sat 07:39:54 PM 38.8950 -86.9931 161° South 398 458 24,000 -293 Level Indianapolis Center
Sat 07:40:56 PM 38.7897 -86.9483 162° South 396 456 23,400 -1,512 Descending Indianapolis Center
Sat 07:41:57 PM 38.6700 -86.8972 162° South 376 433 20,900 -2,115 Descending Indianapolis Center
Sat 07:42:58 PM 38.5725 -86.8558 162° South 366 421 19,100 -1,721 Descending Indianapolis Center
Sat 07:43:59 PM 38.4744 -86.8139 161° South 365 420 17,400 -1,770 Descending Indianapolis Center
Sat 07:45:00 PM 38.3789 -86.7736 162° South 357 411 15,500 -1,820 Descending Indianapolis Center
Sat 07:46:01 PM 38.2853 -86.7347 162° South 348 400 13,700 -1,623 Descending Indianapolis Center
Sat 07:47:02 PM 38.2467 -86.6358 116° Southeast 325 374 12,200 -1,317 Descending Indianapolis Center
Sat 07:48:04 PM 38.2325 -86.5311 100° East 305 351 11,000 -1,122 Descending Indianapolis Center
Sat 07:49:05 PM 38.2194 -86.4356 100° East 280 322 9,900 -1,279 Descending Indianapolis Center
Sat 07:50:06 PM 38.2103 -86.3497 98° East 250 288 8,400 -1,525 Descending Indianapolis Center
Sat 07:51:07 PM 38.2494 -86.2714 57° Northeast 256 295 6,800 -1,230 Descending Indianapolis Center
Sat 07:52:08 PM 38.2861 -86.1950 59° Northeast 254 292 5,900 -689 Descending Indianapolis Center
Sat 07:53:09 PM 38.3131 -86.1150 67° East 246 283 5,400 -927 Descending Indianapolis Center
Sat 07:54:11 PM 38.3200 -86.0272 84° East 245 282 4,000 -732 Descending Indianapolis Center
Sat 07:55:12 PM 38.3269 -85.9419 84° East 245 282 3,900 -492 Descending Indianapolis Center
Sat 07:56:13 PM 38.3350 -85.8567 83° East 242 278 3,000 -443 Descending Indianapolis Center
Sat 07:57:14 PM 38.3250 -85.7842 100° East 233 268 3,000 -246 Level Indianapolis Center
Sat 07:58:15 PM 38.2819 -85.7636 159° South 191 220 2,500 -439 Descending Indianapolis Center
Sat 07:59:17 PM 38.2292 -85.7469 166° South 180 207 2,100 -387 Descending Indianapolis Center
Sat 08:01:00 PM 38.1741 -85.7365 132° Southeast  Level Estimated
Sat 08:08:00 PM 38.1741 -85.7365 293° West  Level Estimated

Login

Don't have an account? Register now (free) for customized features, flight alerts, and more!